sensor_id;sensor_type;location;lat;lon;timestamp;P1;durP1;ratioP1;P2;durP2;ratioP2
53939;SDS011;39850;43.324;21.916;2023-04-19T00:02:36;14.0;;;14.0;;
53939;SDS011;39850;43.324;21.916;2023-04-19T00:07:13;14.0;;;14.0;;
53939;SDS011;39850;43.324;21.916;2023-04-19T00:11:51;14.0;;;14.0;;
53939;SDS011;39850;43.324;21.916;2023-04-19T00:16:28;14.0;;;14.0;;
53939;SDS011;39850;43.324;21.916;2023-04-19T00:21:05;14.0;;;14.0;;
53939;SDS011;39850;43.324;21.916;2023-04-19T00:25:47;14.0;;;14.0;;
53939;SDS011;39850;43.324;21.916;2023-04-19T00:30:25;14.0;;;14.0;;
53939;SDS011;39850;43.324;21.916;2023-04-19T00:35:02;14.0;;;15.0;;
53939;SDS011;39850;43.324;21.916;2023-04-19T00:39:42;14.0;;;15.0;;
53939;SDS011;39850;43.324;21.916;2023-04-19T01:16:48;13.0;;;13.0;;
53939;SDS011;39850;43.324;21.916;2023-04-19T01:21:25;13.0;;;13.0;;
53939;SDS011;39850;43.324;21.916;2023-04-19T01:26:02;14.0;;;14.0;;
53939;SDS011;39850;43.324;21.916;2023-04-19T01:30:40;14.0;;;14.0;;
53939;SDS011;39850;43.324;21.916;2023-04-19T01:35:17;14.0;;;13.0;;
53939;SDS011;39850;43.324;21.916;2023-04-19T01:39:54;14.0;;;13.0;;
53939;SDS011;39850;43.324;21.916;2023-04-19T01:44:30;14.0;;;14.0;;
53939;SDS011;39850;43.324;21.916;2023-04-19T01:49:07;14.0;;;14.0;;
53939;SDS011;39850;43.324;21.916;2023-04-19T01:53:44;14.0;;;13.0;;
53939;SDS011;39850;43.324;21.916;2023-04-19T01:58:20;14.0;;;13.0;;
53939;SDS011;39850;43.324;21.916;2023-04-19T02:02:57;14.0;;;13.0;;
53939;SDS011;39850;43.324;21.916;2023-04-19T02:35:14;14.0;;;14.0;;
53939;SDS011;39850;43.324;21.916;2023-04-19T02:39:51;14.0;;;14.0;;
53939;SDS011;39850;43.324;21.916;2023-04-19T02:44:27;14.0;;;14.0;;
53939;SDS011;39850;43.324;21.916;2023-04-19T02:49:04;14.0;;;14.0;;
53939;SDS011;39850;43.324;21.916;2023-04-19T02:53:41;14.0;;;14.0;;
53939;SDS011;39850;43.324;21.916;2023-04-19T02:58:18;14.0;;;14.0;;
53939;SDS011;39850;43.324;21.916;2023-04-19T03:02:56;14.0;;;14.0;;
53939;SDS011;39850;43.324;21.916;2023-04-19T03:07:34;14.0;;;14.0;;
53939;SDS011;39850;43.324;21.916;2023-04-19T03:12:11;14.0;;;14.0;;
53939;SDS011;39850;43.324;21.916;2023-04-19T03:16:48;14.0;;;14.0;;
53939;SDS011;39850;43.324;21.916;2023-04-19T03:21:25;14.0;;;14.0;;
53939;SDS011;39850;43.324;21.916;2023-04-19T05:16:42;18.0;;;16.0;;
53939;SDS011;39850;43.324;21.916;2023-04-19T05:21:19;18.0;;;16.0;;
53939;SDS011;39850;43.324;21.916;2023-04-19T05:25:55;18.0;;;16.0;;
53939;SDS011;39850;43.324;21.916;2023-04-19T05:30:32;18.0;;;16.0;;
53939;SDS011;39850;43.324;21.916;2023-04-19T05:35:10;18.0;;;16.0;;
53939;SDS011;39850;43.324;21.916;2023-04-19T05:39:46;18.0;;;16.0;;
53939;SDS011;39850;43.324;21.916;2023-04-19T05:44:23;18.0;;;17.0;;
53939;SDS011;39850;43.324;21.916;2023-04-19T05:49:01;18.0;;;17.0;;
53939;SDS011;39850;43.324;21.916;2023-04-19T05:53:38;18.0;;;17.0;;
53939;SDS011;39850;43.324;21.916;2023-04-19T06:35:09;24.0;;;25.0;;
53939;SDS011;39850;43.324;21.916;2023-04-19T06:39:46;24.0;;;25.0;;
53939;SDS011;39850;43.324;21.916;2023-04-19T06:44:23;22.0;;;22.0;;
53939;SDS011;39850;43.324;21.916;2023-04-19T06:49:00;22.0;;;22.0;;
53939;SDS011;39850;43.324;21.916;2023-04-19T06:53:37;22.0;;;22.0;;
53939;SDS011;39850;43.324;21.916;2023-04-19T06:58:14;22.0;;;22.0;;
53939;SDS011;39850;43.324;21.916;2023-04-19T07:02:50;22.0;;;22.0;;
53939;SDS011;39850;43.324;21.916;2023-04-19T07:07:27;20.0;;;20.0;;
53939;SDS011;39850;43.324;21.916;2023-04-19T07:12:05;20.0;;;20.0;;
53939;SDS011;39850;43.324;21.916;2023-04-19T07:58:11;18.0;;;18.0;;
53939;SDS011;39850;43.324;21.916;2023-04-19T08:02:48;18.0;;;18.0;;
53939;SDS011;39850;43.324;21.916;2023-04-19T08:07:25;18.0;;;18.0;;
53939;SDS011;39850;43.324;21.916;2023-04-19T08:12:03;18.0;;;18.0;;
53939;SDS011;39850;43.324;21.916;2023-04-19T08:16:39;18.0;;;18.0;;
53939;SDS011;39850;43.324;21.916;2023-04-19T08:21:16;18.0;;;18.0;;
53939;SDS011;39850;43.324;21.916;2023-04-19T08:25:53;18.0;;;18.0;;
53939;SDS011;39850;43.324;21.916;2023-04-19T08:30:31;18.0;;;18.0;;
53939;SDS011;39850;43.324;21.916;2023-04-19T09:17:15;16.0;;;16.0;;
53939;SDS011;39850;43.324;21.916;2023-04-19T09:21:54;16.0;;;16.0;;
53939;SDS011;39850;43.324;21.916;2023-04-19T09:26:34;16.0;;;16.0;;
53939;SDS011;39850;43.324;21.916;2023-04-19T09:31:12;16.0;;;16.0;;
53939;SDS011;39850;43.324;21.916;2023-04-19T09:35:49;16.0;;;16.0;;
53939;SDS011;39850;43.324;21.916;2023-04-19T09:40:25;16.0;;;16.0;;
53939;SDS011;39850;43.324;21.916;2023-04-19T09:45:05;16.0;;;16.0;;
53939;SDS011;39850;43.324;21.916;2023-04-19T09:49:43;16.0;;;16.0;;
53939;SDS011;39850;43.324;21.916;2023-04-19T09:54:25;16.0;;;16.0;;
53939;SDS011;39850;43.324;21.916;2023-04-19T10:36:27;15.0;;;15.0;;
53939;SDS011;39850;43.324;21.916;2023-04-19T10:41:05;15.0;;;15.0;;
53939;SDS011;39850;43.324;21.916;2023-04-19T10:45:43;16.0;;;16.0;;
53939;SDS011;39850;43.324;21.916;2023-04-19T10:50:23;16.0;;;16.0;;
53939;SDS011;39850;43.324;21.916;2023-04-19T10:55:05;16.0;;;16.0;;
53939;SDS011;39850;43.324;21.916;2023-04-19T10:59:42;16.0;;;16.0;;
53939;SDS011;39850;43.324;21.916;2023-04-19T11:05:00;16.0;;;16.0;;
53939;SDS011;39850;43.324;21.916;2023-04-19T11:09:46;16.0;;;16.0;;
53939;SDS011;39850;43.324;21.916;2023-04-19T11:14:34;16.0;;;16.0;;
53939;SDS011;39850;43.324;21.916;2023-04-19T11:57:08;17.0;;;16.0;;
53939;SDS011;39850;43.324;21.916;2023-04-19T12:01:45;17.0;;;16.0;;
53939;SDS011;39850;43.324;21.916;2023-04-19T12:06:29;17.0;;;16.0;;
53939;SDS011;39850;43.324;21.916;2023-04-19T12:11:07;17.0;;;16.0;;
53939;SDS011;39850;43.324;21.916;2023-04-19T12:15:46;17.0;;;16.0;;
53939;SDS011;39850;43.324;21.916;2023-04-19T12:20:43;17.0;;;16.0;;
53939;SDS011;39850;43.324;21.916;2023-04-19T12:25:20;17.0;;;17.0;;
53939;SDS011;39850;43.324;21.916;2023-04-19T12:29:57;17.0;;;17.0;;
53939;SDS011;39850;43.324;21.916;2023-04-19T12:34:34;17.0;;;17.0;;
53939;SDS011;39850;43.324;21.916;2023-04-19T13:16:07;13.0;;;10.0;;
53939;SDS011;39850;43.324;21.916;2023-04-19T13:20:45;13.0;;;10.0;;
53939;SDS011;39850;43.324;21.916;2023-04-19T13:25:22;13.0;;;10.0;;
53939;SDS011;39850;43.324;21.916;2023-04-19T13:29:59;13.0;;;10.0;;
53939;SDS011;39850;43.324;21.916;2023-04-19T13:34:37;13.0;;;10.0;;
53939;SDS011;39850;43.324;21.916;2023-04-19T13:39:14;14.0;;;12.0;;
53939;SDS011;39850;43.324;21.916;2023-04-19T13:43:51;14.0;;;12.0;;
53939;SDS011;39850;43.324;21.916;2023-04-19T13:48:28;15.0;;;13.0;;
53939;SDS011;39850;43.324;21.916;2023-04-19T13:53:05;15.0;;;13.0;;
53939;SDS011;39850;43.324;21.916;2023-04-19T13:57:42;15.0;;;13.0;;
53939;SDS011;39850;43.324;21.916;2023-04-19T14:02:20;15.0;;;13.0;;
53939;SDS011;39850;43.324;21.916;2023-04-19T14:39:18;11.0;;;10.0;;
53939;SDS011;39850;43.324;21.916;2023-04-19T14:43:55;11.0;;;10.0;;
53939;SDS011;39850;43.324;21.916;2023-04-19T14:48:31;11.0;;;10.0;;
53939;SDS011;39850;43.324;21.916;2023-04-19T14:53:08;11.0;;;10.0;;
53939;SDS011;39850;43.324;21.916;2023-04-19T14:57:45;11.0;;;10.0;;
53939;SDS011;39850;43.324;21.916;2023-04-19T15:02:21;11.0;;;10.0;;
53939;SDS011;39850;43.324;21.916;2023-04-19T15:06:58;10.0;;;10.0;;
53939;SDS011;39850;43.324;21.916;2023-04-19T15:11:35;10.0;;;10.0;;
53939;SDS011;39850;43.324;21.916;2023-04-19T15:16:12;10.0;;;10.0;;
53939;SDS011;39850;43.324;21.916;2023-04-19T15:20:49;10.0;;;10.0;;
53939;SDS011;39850;43.324;21.916;2023-04-19T15:25:26;10.0;;;10.0;;
53939;SDS011;39850;43.324;21.916;2023-04-19T15:57:46;11.0;;;9.0;;
53939;SDS011;39850;43.324;21.916;2023-04-19T16:02:22;11.0;;;9.0;;
53939;SDS011;39850;43.324;21.916;2023-04-19T16:06:59;10.0;;;9.0;;
53939;SDS011;39850;43.324;21.916;2023-04-19T16:11:36;10.0;;;9.0;;
53939;SDS011;39850;43.324;21.916;2023-04-19T16:16:12;10.0;;;9.0;;
53939;SDS011;39850;43.324;21.916;2023-04-19T16:20:49;10.0;;;9.0;;
53939;SDS011;39850;43.324;21.916;2023-04-19T16:25:32;10.0;;;9.0;;
53939;SDS011;39850;43.324;21.916;2023-04-19T16:30:15;10.0;;;9.0;;
53939;SDS011;39850;43.324;21.916;2023-04-19T16:34:52;10.0;;;9.0;;
53939;SDS011;39850;43.324;21.916;2023-04-19T17:30:14;13.0;;;11.0;;
53939;SDS011;39850;43.324;21.916;2023-04-19T17:34:51;13.0;;;11.0;;
53939;SDS011;39850;43.324;21.916;2023-04-19T17:39:27;13.0;;;12.0;;
53939;SDS011;39850;43.324;21.916;2023-04-19T17:44:04;13.0;;;12.0;;
53939;SDS011;39850;43.324;21.916;2023-04-19T17:48:41;13.0;;;12.0;;
53939;SDS011;39850;43.324;21.916;2023-04-19T17:53:17;13.0;;;12.0;;
53939;SDS011;39850;43.324;21.916;2023-04-19T17:57:54;13.0;;;12.0;;
53939;SDS011;39850;43.324;21.916;2023-04-19T18:02:30;13.0;;;12.0;;
53939;SDS011;39850;43.324;21.916;2023-04-19T18:39:25;29.0;;;25.0;;
53939;SDS011;39850;43.324;21.916;2023-04-19T18:44:01;29.0;;;25.0;;
53939;SDS011;39850;43.324;21.916;2023-04-19T18:48:38;25.0;;;22.0;;
53939;SDS011;39850;43.324;21.916;2023-04-19T18:53:15;25.0;;;22.0;;
53939;SDS011;39850;43.324;21.916;2023-04-19T18:57:51;21.0;;;18.0;;
53939;SDS011;39850;43.324;21.916;2023-04-19T19:02:28;21.0;;;18.0;;
53939;SDS011;39850;43.324;21.916;2023-04-19T19:07:04;19.0;;;16.0;;
53939;SDS011;39850;43.324;21.916;2023-04-19T19:11:42;19.0;;;16.0;;
53939;SDS011;39850;43.324;21.916;2023-04-19T19:16:18;19.0;;;16.0;;
53939;SDS011;39850;43.324;21.916;2023-04-19T19:20:58;17.0;;;15.0;;
53939;SDS011;39850;43.324;21.916;2023-04-19T19:25:35;17.0;;;15.0;;
53939;SDS011;39850;43.324;21.916;2023-04-19T19:57:55;23.0;;;21.0;;
53939;SDS011;39850;43.324;21.916;2023-04-19T20:02:31;23.0;;;21.0;;
53939;SDS011;39850;43.324;21.916;2023-04-19T20:07:11;22.0;;;21.0;;
53939;SDS011;39850;43.324;21.916;2023-04-19T20:11:48;22.0;;;21.0;;
53939;SDS011;39850;43.324;21.916;2023-04-19T20:16:24;22.0;;;21.0;;
53939;SDS011;39850;43.324;21.916;2023-04-19T20:21:01;22.0;;;21.0;;
53939;SDS011;39850;43.324;21.916;2023-04-19T20:25:37;22.0;;;21.0;;
53939;SDS011;39850;43.324;21.916;2023-04-19T20:30:14;19.0;;;17.0;;
53939;SDS011;39850;43.324;21.916;2023-04-19T20:34:51;19.0;;;17.0;;
53939;SDS011;39850;43.324;21.916;2023-04-19T20:39:27;16.0;;;13.0;;
53939;SDS011;39850;43.324;21.916;2023-04-19T20:44:05;16.0;;;13.0;;
53939;SDS011;39850;43.324;21.916;2023-04-19T21:20:57;14.0;;;12.0;;
53939;SDS011;39850;43.324;21.916;2023-04-19T21:25:34;14.0;;;12.0;;
53939;SDS011;39850;43.324;21.916;2023-04-19T21:30:13;14.0;;;12.0;;
53939;SDS011;39850;43.324;21.916;2023-04-19T21:34:50;14.0;;;12.0;;
53939;SDS011;39850;43.324;21.916;2023-04-19T21:39:27;14.0;;;12.0;;
53939;SDS011;39850;43.324;21.916;2023-04-19T21:44:05;14.0;;;12.0;;
53939;SDS011;39850;43.324;21.916;2023-04-19T21:48:42;18.0;;;16.0;;
53939;SDS011;39850;43.324;21.916;2023-04-19T21:53:18;18.0;;;16.0;;
53939;SDS011;39850;43.324;21.916;2023-04-19T21:57:55;22.0;;;21.0;;
53939;SDS011;39850;43.324;21.916;2023-04-19T22:02:32;22.0;;;21.0;;
53939;SDS011;39850;43.324;21.916;2023-04-19T22:07:10;22.0;;;21.0;;
53939;SDS011;39850;43.324;21.916;2023-04-19T22:39:28;40.0;;;38.0;;
53939;SDS011;39850;43.324;21.916;2023-04-19T22:44:05;40.0;;;38.0;;
53939;SDS011;39850;43.324;21.916;2023-04-19T22:48:41;34.0;;;32.0;;
53939;SDS011;39850;43.324;21.916;2023-04-19T22:53:18;34.0;;;32.0;;
53939;SDS011;39850;43.324;21.916;2023-04-19T22:57:54;28.0;;;25.0;;
53939;SDS011;39850;43.324;21.916;2023-04-19T23:02:31;28.0;;;25.0;;
53939;SDS011;39850;43.324;21.916;2023-04-19T23:07:08;28.0;;;25.0;;
53939;SDS011;39850;43.324;21.916;2023-04-19T23:11:44;28.0;;;25.0;;
53939;SDS011;39850;43.324;21.916;2023-04-19T23:16:24;28.0;;;25.0;;
53939;SDS011;39850;43.324;21.916;2023-04-19T23:21:01;28.0;;;25.0;;
53939;SDS011;39850;43.324;21.916;2023-04-19T23:25:37;28.0;;;25.0;;
